createdAt,value
2022-08-25T00:00:54.363Z,1.92
2022-08-25T00:06:16.942Z,1.20
2022-08-25T00:11:40.047Z,3.22
2022-08-25T00:17:02.096Z,4.10
2022-08-25T00:22:23.893Z,1.95
2022-08-25T00:27:45.812Z,1.42
2022-08-25T00:33:08.426Z,1.20
2022-08-25T00:38:30.327Z,1.13
2022-08-25T00:43:58.077Z,3.03
2022-08-25T00:49:29.069Z,2.92
2022-08-25T00:55:08.306Z,1.10
2022-08-25T01:00:37.320Z,0.80
2022-08-25T01:06:00.473Z,1.48
2022-08-25T01:11:22.388Z,1.00
2022-08-25T01:16:44.416Z,0.80
2022-08-25T01:22:06.385Z,1.10
2022-08-25T01:27:28.136Z,1.60
2022-08-25T01:32:49.843Z,1.00
2022-08-25T01:38:13.082Z,0.65
2022-08-25T01:43:38.935Z,3.28
2022-08-25T01:49:10.874Z,1.70
2022-08-25T01:54:32.759Z,3.00
2022-08-25T01:59:54.454Z,0.98
2022-08-25T02:05:18.482Z,0.98
2022-08-25T02:10:45.649Z,2.25
2022-08-25T02:16:09.482Z,1.20
2022-08-25T02:21:32.720Z,1.48
2022-08-25T02:26:54.529Z,1.10
2022-08-25T02:32:16.219Z,1.20
2022-08-25T02:37:37.966Z,0.70
2022-08-25T02:42:59.858Z,1.15
2022-08-25T02:48:21.925Z,1.17
2022-08-25T02:53:46.150Z,1.52
2022-08-25T02:59:07.868Z,0.73
2022-08-25T03:04:29.712Z,1.13
2022-08-25T03:09:51.704Z,0.85
2022-08-25T03:15:18.737Z,0.98
2022-08-25T03:20:40.847Z,0.50
2022-08-25T03:26:21.486Z,1.10
2022-08-25T03:31:45.027Z,0.82
2022-08-25T03:37:08.723Z,2.38
2022-08-25T03:42:30.454Z,2.92
2022-08-25T03:47:53.289Z,2.05
2022-08-25T03:53:15.108Z,3.80
2022-08-25T03:58:37.284Z,4.13
2022-08-25T04:03:59.002Z,2.38
2022-08-25T04:09:21.489Z,2.10
2022-08-25T04:14:43.248Z,2.17
2022-08-25T04:20:06.626Z,1.67
2022-08-25T04:25:28.726Z,1.70
2022-08-25T04:30:52.173Z,0.98
2022-08-25T04:36:15.119Z,2.78
2022-08-25T04:41:36.926Z,3.55
2022-08-25T04:46:59.611Z,1.38
2022-08-25T04:52:21.330Z,1.73
2022-08-25T04:57:43.531Z,1.52
2022-08-25T05:03:06.154Z,0.95
2022-08-25T05:08:27.944Z,2.03
2022-08-25T05:13:51.883Z,1.75
2022-08-25T05:19:13.677Z,3.53
2022-08-25T05:24:35.487Z,2.53
2022-08-25T05:29:57.185Z,1.60
2022-08-25T05:35:20.366Z,1.15
2022-08-25T05:40:42.061Z,1.83
2022-08-25T05:46:04.102Z,1.70
2022-08-25T05:51:26.862Z,1.27
2022-08-25T05:56:48.669Z,2.85
2022-08-25T06:02:29.055Z,4.20
2022-08-25T06:07:52.390Z,1.25
2022-08-25T06:13:14.542Z,1.50
2022-08-25T06:18:36.251Z,8.43
2022-08-25T06:23:58.072Z,13.27
2022-08-25T06:29:21.052Z,8.65
2022-08-25T06:34:42.747Z,10.95
2022-08-25T06:40:07.441Z,12.25
2022-08-25T06:45:29.154Z,5.00
2022-08-25T06:50:50.975Z,6.15
2022-08-25T06:56:13.535Z,7.20
2022-08-25T07:01:35.611Z,4.35
2022-08-25T07:06:57.406Z,2.88
2022-08-25T07:12:19.210Z,5.32
2022-08-25T07:17:40.942Z,3.75
2022-08-25T07:23:05.875Z,7.57
2022-08-25T07:28:27.681Z,4.00
2022-08-25T07:34:07.812Z,3.30
2022-08-25T07:39:32.423Z,7.22
2022-08-25T07:44:54.137Z,1.95
2022-08-25T07:50:15.946Z,3.17
2022-08-25T07:55:38.441Z,1.90
2022-08-25T08:01:00.152Z,3.10
2022-08-25T08:06:24.148Z,4.25
2022-08-25T08:11:53.833Z,4.45
2022-08-25T08:17:16.396Z,1.73
2022-08-25T08:22:41.117Z,5.18
2022-08-25T08:28:03.180Z,5.88
2022-08-25T08:33:25.989Z,4.05
2022-08-25T08:38:49.604Z,2.43
2022-08-25T08:44:42.537Z,4.57
2022-08-25T08:50:33.774Z,2.22
2022-08-25T08:56:19.630Z,5.20
2022-08-25T09:01:57.622Z,2.00
2022-08-25T09:07:24.751Z,7.38
2022-08-25T09:12:57.021Z,6.53
2022-08-25T09:18:29.535Z,8.65
2022-08-25T09:24:36.517Z,8.50
2022-08-25T09:30:14.149Z,5.30
2022-08-25T09:35:40.855Z,2.60
2022-08-25T09:41:03.180Z,3.75
2022-08-25T09:46:28.850Z,2.58
2022-08-25T09:57:34.771Z,1.92
2022-08-25T10:03:06.016Z,4.22
2022-08-25T10:08:45.146Z,1.55
2022-08-25T10:14:18.798Z,1.33
2022-08-25T10:19:40.558Z,1.67
2022-08-25T10:25:04.921Z,3.15
2022-08-25T10:30:42.964Z,3.27
2022-08-25T10:36:21.356Z,4.90
2022-08-25T10:41:57.977Z,2.40
2022-08-25T10:47:57.759Z,2.95
2022-08-25T10:53:37.145Z,3.20
2022-08-25T10:59:19.921Z,3.65
2022-08-25T11:04:58.905Z,3.50
2022-08-25T11:10:28.027Z,3.40
2022-08-25T11:16:16.597Z,2.13
2022-08-25T11:21:47.815Z,4.15
2022-08-25T11:27:17.516Z,3.28
2022-08-25T11:32:41.961Z,3.97
2022-08-25T11:38:25.188Z,6.27
2022-08-25T11:44:23.818Z,2.67
2022-08-25T11:50:08.604Z,3.78
2022-08-25T11:55:51.410Z,5.13
2022-08-25T12:01:40.882Z,9.68
2022-08-25T12:07:11.412Z,2.22
2022-08-25T12:12:41.941Z,7.10
2022-08-25T12:18:18.757Z,13.80
2022-08-25T12:24:11.082Z,7.35
2022-08-25T12:29:57.495Z,15.27
2022-08-25T12:35:19.657Z,4.88
2022-08-25T12:40:45.333Z,8.60
2022-08-25T12:46:25.948Z,13.18
2022-08-25T12:51:53.948Z,9.38
2022-08-25T12:57:29.529Z,11.32
2022-08-25T13:03:14.168Z,4.25
2022-08-25T13:09:13.360Z,3.88
2022-08-25T13:14:40.632Z,14.05
2022-08-25T13:20:26.398Z,6.30
2022-08-25T13:25:52.050Z,4.65
2022-08-25T13:31:22.329Z,8.18
2022-08-25T13:37:04.892Z,6.03
2022-08-25T13:42:28.992Z,6.38
2022-08-25T13:47:55.848Z,6.20
2022-08-25T13:53:26.145Z,5.03
2022-08-25T13:58:47.885Z,5.47
2022-08-25T14:04:32.928Z,3.85
2022-08-25T14:10:01.631Z,5.20
2022-08-25T14:15:23.529Z,3.33
2022-08-25T14:20:54.288Z,5.50
2022-08-25T14:26:16.092Z,8.50
2022-08-25T14:31:43.452Z,5.18
2022-08-25T14:37:18.015Z,3.90
2022-08-25T14:42:40.242Z,9.95
2022-08-25T14:48:10.625Z,4.53
2022-08-25T14:53:33.662Z,5.15
2022-08-25T14:58:55.783Z,3.67
2022-08-25T15:04:20.594Z,4.43
2022-08-25T15:09:42.338Z,3.78
2022-08-25T15:15:04.531Z,26.45
2022-08-25T15:20:26.702Z,34.83
2022-08-25T15:25:52.642Z,39.80
2022-08-25T15:31:15.781Z,39.22
2022-08-25T15:36:38.027Z,33.80
2022-08-25T15:42:00.308Z,31.92
2022-08-25T15:47:24.306Z,31.58
2022-08-25T15:52:47.548Z,27.03
2022-08-25T15:58:10.292Z,23.50
2022-08-25T16:03:32.622Z,21.02
2022-08-25T16:08:54.576Z,18.30
2022-08-25T16:14:16.373Z,18.67
2022-08-25T16:19:38.382Z,19.58
2022-08-25T16:25:02.670Z,17.40
2022-08-25T16:30:24.507Z,14.32
2022-08-25T16:35:47.580Z,18.40
2022-08-25T16:41:21.453Z,19.10
2022-08-25T16:46:44.321Z,27.27
2022-08-25T16:52:28.384Z,18.83
2022-08-25T16:57:55.572Z,28.45
2022-08-25T17:03:17.357Z,20.92
2022-08-25T17:08:39.945Z,28.50
2022-08-25T17:14:06.809Z,16.17
2022-08-25T17:19:33.386Z,24.73
2022-08-25T17:25:00.742Z,12.73
2022-08-25T17:30:23.084Z,8.63
2022-08-25T17:35:49.829Z,12.63
2022-08-25T17:41:12.439Z,7.03
2022-08-25T17:46:34.315Z,14.63
2022-08-25T17:51:56.102Z,6.72
2022-08-25T17:57:17.886Z,15.55
2022-08-25T18:02:39.642Z,12.43
2022-08-25T18:08:01.738Z,15.02
2022-08-25T18:13:26.886Z,15.43
2022-08-25T18:18:51.382Z,13.00
2022-08-25T18:24:14.522Z,10.73
2022-08-25T18:29:36.456Z,9.18
2022-08-25T18:34:58.950Z,13.07
2022-08-25T18:40:24.009Z,11.93
2022-08-25T18:45:50.441Z,8.65
2022-08-25T18:51:12.270Z,8.13
2022-08-25T18:56:35.253Z,8.82
2022-08-25T19:01:57.637Z,7.13
2022-08-25T19:07:19.765Z,5.63
2022-08-25T19:12:41.628Z,7.32
2022-08-25T19:18:10.726Z,6.00
2022-08-25T19:23:32.826Z,8.95
2022-08-25T19:28:55.434Z,8.52
2022-08-25T19:34:28.352Z,16.30
2022-08-25T19:39:54.146Z,18.27
2022-08-25T19:45:15.968Z,10.50
2022-08-25T19:50:38.529Z,27.45
2022-08-25T19:56:02.270Z,18.52
2022-08-25T20:01:25.694Z,15.90
2022-08-25T20:06:48.270Z,20.83
2022-08-25T20:12:10.903Z,14.77
2022-08-25T20:17:33.695Z,11.88
2022-08-25T20:23:16.251Z,13.40
2022-08-25T20:28:42.026Z,12.65
2022-08-25T20:34:04.508Z,13.98
2022-08-25T20:39:26.298Z,12.57
2022-08-25T20:44:48.020Z,8.48
2022-08-25T20:50:10.420Z,9.93
2022-08-25T20:55:32.342Z,9.00
2022-08-25T21:01:03.683Z,6.30
2022-08-25T21:06:25.485Z,7.03
2022-08-25T21:11:48.321Z,8.77
2022-08-25T21:17:13.352Z,8.70
2022-08-25T21:22:36.121Z,7.43
2022-08-25T21:27:59.890Z,5.07
2022-08-25T21:33:21.674Z,8.73
2022-08-25T21:38:48.122Z,6.30
2022-08-25T21:44:11.178Z,8.40
2022-08-25T21:49:37.352Z,9.02
2022-08-25T21:55:02.267Z,6.70
2022-08-25T22:00:24.871Z,7.35
2022-08-25T22:05:46.559Z,8.50
2022-08-25T22:11:10.989Z,3.38
2022-08-25T22:16:35.098Z,7.10
2022-08-25T22:21:57.776Z,5.90
2022-08-25T22:27:23.472Z,11.75
2022-08-25T22:32:45.671Z,5.95
2022-08-25T22:38:08.381Z,6.82
2022-08-25T22:43:34.586Z,5.95
2022-08-25T22:48:57.010Z,6.22
2022-08-25T22:54:18.725Z,6.38
2022-08-25T22:59:40.731Z,4.85
2022-08-25T23:05:02.862Z,3.97
2022-08-25T23:10:25.696Z,8.63
2022-08-25T23:15:47.502Z,7.65
2022-08-25T23:21:28.024Z,3.65
2022-08-25T23:26:49.809Z,3.47
2022-08-25T23:32:14.496Z,4.32
2022-08-25T23:37:36.978Z,4.20
2022-08-25T23:42:58.663Z,5.95
2022-08-25T23:48:21.408Z,4.28
2022-08-25T23:53:43.171Z,3.78
2022-08-25T23:59:06.229Z,3.80
